createdAt,value
2023-01-18T00:05:29.644Z,9.10
2023-01-18T00:11:22.908Z,10.63
2023-01-18T00:17:17.237Z,10.33
2023-01-18T00:23:10.860Z,9.80
2023-01-18T00:29:05.204Z,10.97
2023-01-18T00:35:01.052Z,10.73
2023-01-18T00:40:55.006Z,9.97
2023-01-18T00:46:50.368Z,10.60
2023-01-18T00:52:46.800Z,10.53
2023-01-18T00:58:40.250Z,10.93
2023-01-18T01:04:50.888Z,10.53
2023-01-18T01:10:47.587Z,10.30
2023-01-18T01:16:58.124Z,11.07
2023-01-18T01:23:09.233Z,11.40
2023-01-18T01:29:04.019Z,11.27
2023-01-18T01:34:57.676Z,9.93
2023-01-18T01:40:58.051Z,11.63
2023-01-18T01:46:55.164Z,11.00
2023-01-18T01:52:49.128Z,10.77
2023-01-18T01:58:43.601Z,12.10
2023-01-18T02:04:39.347Z,13.47
2023-01-18T02:10:32.868Z,13.17
2023-01-18T02:16:38.646Z,13.23
2023-01-18T02:22:53.345Z,12.10
2023-01-18T02:28:54.695Z,12.50
2023-01-18T02:34:51.533Z,12.50
2023-01-18T02:41:02.779Z,12.47
2023-01-18T02:46:58.320Z,11.83
2023-01-18T02:52:53.908Z,12.37
2023-01-18T02:58:50.054Z,12.57
2023-01-18T03:04:54.159Z,12.67
2023-01-18T03:10:58.364Z,12.80
2023-01-18T03:17:00.099Z,13.67
2023-01-18T03:23:17.708Z,12.87
2023-01-18T03:29:31.271Z,11.27
2023-01-18T03:35:27.347Z,12.93
2023-01-18T03:41:24.136Z,13.20
2023-01-18T03:47:17.774Z,12.33
2023-01-18T03:53:15.739Z,12.60
2023-01-18T03:59:11.413Z,11.30
2023-01-18T04:05:05.598Z,12.57
2023-01-18T04:10:58.619Z,12.90
2023-01-18T04:16:53.463Z,12.70
2023-01-18T04:22:52.183Z,13.20
2023-01-18T04:28:45.215Z,12.93
2023-01-18T04:34:40.063Z,13.80
2023-01-18T04:40:33.355Z,12.13
2023-01-18T04:46:27.432Z,11.80
2023-01-18T04:52:22.301Z,12.57
2023-01-18T04:58:15.462Z,11.97
2023-01-18T05:04:08.930Z,12.50
2023-01-18T05:10:03.593Z,12.13
2023-01-18T05:15:58.038Z,10.97
2023-01-18T05:21:51.803Z,11.70
2023-01-18T05:27:46.459Z,12.10
2023-01-18T05:33:40.075Z,12.07
2023-01-18T05:39:33.182Z,12.27
2023-01-18T05:45:28.006Z,12.37
2023-01-18T05:51:21.172Z,12.60
2023-01-18T05:57:14.608Z,12.50
2023-01-18T06:03:10.834Z,11.97
2023-01-18T06:09:04.873Z,11.87
2023-01-18T06:14:58.382Z,10.83
2023-01-18T06:20:55.184Z,11.60
2023-01-18T06:26:48.631Z,10.43
2023-01-18T06:32:41.599Z,11.00
2023-01-18T06:38:36.552Z,10.70
2023-01-18T06:44:29.547Z,11.13
2023-01-18T06:50:23.364Z,11.10
2023-01-18T06:56:18.170Z,10.27
2023-01-18T07:02:15.103Z,11.13
2023-01-18T07:08:08.123Z,10.80
2023-01-18T07:14:02.960Z,11.30
2023-01-18T07:19:55.958Z,10.57
2023-01-18T07:25:49.086Z,10.83
2023-01-18T07:31:45.117Z,10.50
2023-01-18T07:37:38.579Z,10.47
2023-01-18T07:43:32.399Z,10.57
2023-01-18T07:49:27.887Z,10.60
2023-01-18T07:55:22.148Z,10.70
2023-01-18T08:01:16.530Z,12.60
2023-01-18T08:07:11.153Z,10.93
2023-01-18T08:13:09.119Z,10.20
2023-01-18T08:19:02.396Z,11.13
2023-01-18T08:24:57.622Z,11.30
2023-01-18T08:30:50.676Z,10.93
2023-01-18T08:36:43.715Z,11.00
2023-01-18T08:42:38.538Z,12.00
2023-01-18T08:48:31.557Z,11.23
2023-01-18T08:54:26.387Z,10.97
2023-01-18T09:00:23.881Z,11.40
2023-01-18T09:06:18.118Z,10.23
2023-01-18T09:12:11.138Z,11.30
2023-01-18T09:18:08.039Z,10.97
2023-01-18T09:24:01.607Z,10.60
2023-01-18T09:29:54.807Z,9.77
2023-01-18T09:35:49.701Z,10.83
2023-01-18T09:41:47.244Z,10.87
2023-01-18T09:47:48.111Z,10.40
2023-01-18T09:53:56.136Z,9.53
2023-01-18T09:59:55.981Z,10.63
2023-01-18T10:06:08.218Z,9.77
2023-01-18T10:12:05.793Z,9.83
2023-01-18T10:18:01.320Z,10.50
2023-01-18T10:24:19.154Z,10.67
2023-01-18T10:30:36.462Z,10.80
2023-01-18T10:36:33.019Z,10.40
2023-01-18T10:42:30.224Z,10.50
2023-01-18T10:48:31.725Z,9.40
2023-01-18T10:54:28.144Z,10.60
2023-01-18T11:00:24.273Z,10.73
2023-01-18T11:06:20.514Z,10.13
2023-01-18T11:12:34.929Z,10.33
2023-01-18T11:18:28.375Z,10.93
2023-01-18T11:24:28.049Z,10.37
2023-01-18T11:30:22.339Z,9.60
2023-01-18T11:36:15.855Z,10.00
2023-01-18T11:42:25.958Z,10.30
2023-01-18T11:48:33.272Z,10.37
2023-01-18T11:54:31.985Z,9.97
2023-01-18T12:00:30.143Z,10.33
2023-01-18T12:06:33.734Z,9.50
2023-01-18T12:12:43.103Z,10.57
2023-01-18T12:19:05.428Z,9.50
2023-01-18T12:25:11.479Z,9.37
2023-01-18T12:31:15.669Z,9.13
2023-01-18T12:37:34.703Z,9.17
2023-01-18T12:43:38.685Z,9.17
2023-01-18T12:49:38.405Z,8.00
2023-01-18T12:55:36.600Z,9.63
2023-01-18T13:01:36.750Z,9.33
2023-01-18T13:07:35.114Z,8.73
2023-01-18T13:13:30.816Z,8.20
2023-01-18T13:19:29.711Z,8.63
2023-01-18T13:25:45.858Z,8.00
2023-01-18T13:31:40.973Z,7.73
2023-01-18T13:37:45.242Z,7.93
2023-01-18T13:44:03.079Z,7.80
2023-01-18T13:49:57.827Z,7.20
2023-01-18T13:56:25.792Z,7.17
2023-01-18T14:02:25.143Z,8.03
2023-01-18T14:08:24.862Z,7.57
2023-01-18T14:14:27.787Z,6.60
2023-01-18T14:20:51.762Z,7.10
2023-01-18T14:26:47.403Z,8.10
2023-01-18T14:32:44.775Z,8.00
2023-01-18T14:38:37.929Z,8.33
2023-01-18T14:44:56.997Z,7.17
2023-01-18T14:50:53.685Z,7.33
2023-01-18T14:56:47.404Z,6.83
2023-01-18T15:02:42.539Z,5.93
2023-01-18T15:08:37.455Z,6.53
2023-01-18T15:14:34.010Z,7.73
2023-01-18T15:20:29.023Z,7.00
2023-01-18T15:26:37.023Z,6.40
2023-01-18T15:32:32.761Z,7.00
2023-01-18T15:38:27.224Z,6.00
2023-01-18T15:44:37.026Z,6.53
2023-01-18T15:50:36.731Z,6.70
2023-01-18T15:56:33.673Z,7.97
2023-01-18T16:02:27.128Z,8.00
2023-01-18T16:08:23.099Z,8.00
2023-01-18T16:14:37.336Z,7.57
2023-01-18T16:20:32.666Z,7.60
2023-01-18T16:26:30.211Z,8.50
2023-01-18T16:32:33.679Z,7.83
2023-01-18T16:38:27.138Z,8.10
2023-01-18T16:44:21.580Z,7.53
2023-01-18T16:50:17.643Z,7.40
2023-01-18T16:56:15.110Z,7.33
2023-01-18T17:02:08.561Z,8.10
2023-01-18T17:08:03.465Z,9.20
2023-01-18T17:13:56.862Z,8.93
2023-01-18T17:19:51.512Z,8.73
2023-01-18T17:25:46.771Z,7.73
2023-01-18T17:31:48.056Z,7.50
2023-01-18T17:37:46.189Z,8.57
2023-01-18T17:43:41.029Z,9.63
2023-01-18T17:49:34.414Z,10.20
2023-01-18T17:55:34.628Z,10.37
2023-01-18T18:01:30.423Z,9.03
2023-01-18T18:07:23.998Z,9.97
2023-01-18T18:13:19.150Z,9.97
2023-01-18T18:19:14.527Z,8.83
2023-01-18T18:25:08.875Z,9.43
2023-01-18T18:31:02.341Z,8.37
2023-01-18T18:36:57.123Z,9.00
2023-01-18T18:43:01.224Z,10.00
2023-01-18T18:48:56.904Z,11.07
2023-01-18T18:54:51.196Z,10.03
2023-01-18T19:00:44.532Z,10.27
2023-01-18T19:06:38.197Z,9.67
2023-01-18T19:12:32.651Z,8.80
2023-01-18T19:18:25.827Z,10.93
2023-01-18T19:24:18.866Z,10.27
2023-01-18T19:30:18.851Z,9.50
2023-01-18T19:36:16.487Z,9.40
2023-01-18T19:42:09.480Z,10.03
2023-01-18T19:48:05.468Z,9.27
2023-01-18T19:53:58.632Z,9.53
2023-01-18T19:59:52.111Z,9.93
2023-01-18T20:05:47.002Z,8.87
2023-01-18T20:11:40.585Z,9.47
2023-01-18T20:17:33.584Z,9.27
2023-01-18T20:23:27.984Z,8.83
2023-01-18T20:29:21.365Z,8.63
2023-01-18T20:35:14.813Z,9.57
2023-01-18T20:41:10.772Z,8.77
2023-01-18T20:47:04.819Z,9.80
2023-01-18T20:52:58.497Z,8.97
2023-01-18T20:58:53.579Z,9.00
2023-01-18T21:04:46.554Z,10.13
2023-01-18T21:10:40.529Z,8.53
2023-01-18T21:16:35.099Z,8.23
2023-01-18T21:22:28.532Z,9.47
2023-01-18T21:28:22.547Z,8.60
2023-01-18T21:34:17.331Z,8.10
2023-01-18T21:40:11.950Z,8.00
2023-01-18T21:46:06.412Z,8.07
2023-01-18T21:52:21.247Z,8.40
2023-01-18T21:58:32.347Z,8.10
2023-01-18T22:04:43.271Z,9.10
2023-01-18T22:10:38.068Z,8.70
2023-01-18T22:16:31.204Z,8.63
2023-01-18T22:22:25.139Z,9.07
2023-01-18T22:28:20.030Z,8.13
2023-01-18T22:34:19.796Z,8.70
2023-01-18T22:40:13.806Z,7.90
2023-01-18T22:46:09.771Z,7.80
2023-01-18T22:52:03.198Z,8.50
2023-01-18T22:57:56.600Z,8.40
2023-01-18T23:03:51.541Z,8.40
2023-01-18T23:09:45.092Z,8.93
2023-01-18T23:16:01.076Z,8.90
2023-01-18T23:21:57.125Z,8.47
2023-01-18T23:27:50.154Z,8.60
2023-01-18T23:33:43.967Z,9.13
2023-01-18T23:39:56.033Z,9.00
2023-01-18T23:46:06.827Z,9.23
2023-01-18T23:52:17.605Z,8.03
2023-01-18T23:58:12.502Z,8.33
